Weather reports worldwide

Advertisment
Grottaglie, Italy (16324): temperature & dewpoint: 08.12.2019 02:00:00 - 14.12.2019 02:00:00 (CET)Grottaglie, Italy (16324): wind speed: 08.12.2019 02:00:00 - 14.12.2019 02:00:00 (CET)Grottaglie, Italy (16324): wind direction: 08.12.2019 02:00:00 - 14.12.2019 02:00:00 (CET)Grottaglie, Italy (16324): visibility: 08.12.2019 02:00:00 - 14.12.2019 02:00:00 (CET)
Date & Time tt [°C] td [°C] ff [km/h] ff [kn] dd vv [km]
14.12.2019 02:00:00 - - - - - -
14.12.2019 01:00:00 - - - - - -
14.12.2019 00:00:00 - - - - - -
13.12.2019 23:00:00 - - - - - -
13.12.2019 22:00:00 - - - - - -
13.12.2019 21:00:00 - - - - - -
13.12.2019 20:00:00 13,0 11,0 16 9 S 9
13.12.2019 19:00:00 13,0 10,0 21 11 S 10
13.12.2019 18:00:00 13,0 10,0 18 10 S 10
13.12.2019 17:00:00 13,0 9,0 13 7 S 10
13.12.2019 16:00:00 13,0 9,0 13 7 S 10
13.12.2019 15:00:00 15,0 7,0 21 11 S 10
13.12.2019 14:00:00 14,0 8,0 18 10 S 10
13.12.2019 13:00:00 15,0 7,0 18 10 SSW 10
13.12.2019 12:00:00 15,0 7,0 13 7 S 10
13.12.2019 11:00:00 13,0 6,0 4 2 SW 10
13.12.2019 10:00:00 11,0 5,0 0 0 N 10
13.12.2019 09:00:00 7,0 6,0 0 0 N 10
13.12.2019 08:00:00 5,0 4,0 0 0 N 10
13.12.2019 07:00:00 - - - - - -
13.12.2019 06:00:00 - - - - - -
13.12.2019 05:00:00 - - - - - -
13.12.2019 04:00:00 - - - - - -
13.12.2019 03:00:00 - - - - - -
13.12.2019 02:00:00 - - - - - -
13.12.2019 01:00:00 - - - - - -
13.12.2019 00:00:00 - - - - - -
12.12.2019 23:00:00 - - - - - -
12.12.2019 22:00:00 - - - - - -
12.12.2019 21:00:00 - - - - - -
12.12.2019 20:00:00 12,0 8,0 13 7 SSW 10
12.12.2019 19:00:00 12,0 8,0 13 7 SSW 10
12.12.2019 18:00:00 12,0 8,0 15 8 SSW 10
12.12.2019 17:00:00 12,0 8,0 5 3 E 10
12.12.2019 16:00:00 12,0 8,0 5 3 SE 10
12.12.2019 15:00:00 13,0 8,0 5 3 SW 10
12.12.2019 14:00:00 13,0 8,0 9 5 SSW 10
12.12.2019 13:00:00 13,0 8,0 8 4 SW 10
12.12.2019 12:00:00 12,0 7,0 5 3 WSW 10
12.12.2019 11:00:00 11,0 8,0 5 3 S 10
12.12.2019 10:00:00 10,0 8,0 4 2 - 10
12.12.2019 09:00:00 9,0 8,0 0 0 N 10
12.12.2019 08:00:00 8,0 8,0 4 2 - 10
12.12.2019 07:00:00 - - - - - -
12.12.2019 06:00:00 - - - - - -
12.12.2019 05:00:00 - - - - - -
12.12.2019 04:00:00 - - - - - -
12.12.2019 03:00:00 - - - - - -
12.12.2019 02:00:00 - - - - - -
12.12.2019 01:00:00 - - - - - -
12.12.2019 00:00:00 - - - - - -
11.12.2019 23:00:00 - - - - - -
11.12.2019 22:00:00 - - - - - -
11.12.2019 21:00:00 - - - - - -
11.12.2019 20:00:00 11,0 8,0 28 15 N 10
11.12.2019 19:00:00 11,0 8,0 29 16 N 10
11.12.2019 18:00:00 11,0 8,0 24 13 N 10
11.12.2019 17:00:00 11,0 8,0 8 4 NNW 10
11.12.2019 16:00:00 11,0 8,0 21 11 N 10
11.12.2019 15:00:00 11,0 9,0 21 11 N 10
11.12.2019 14:00:00 11,0 8,0 16 9 N 10
11.12.2019 13:00:00 11,0 9,0 16 9 N 10
11.12.2019 12:00:00 11,0 9,0 28 15 N 10
11.12.2019 11:00:00 11,0 9,0 22 12 N 8
11.12.2019 10:00:00 11,0 9,0 24 13 NNE 9
11.12.2019 09:00:00 10,0 9,0 16 9 N 8
11.12.2019 08:00:00 10,0 9,0 22 12 NNE 9
11.12.2019 07:00:00 - - - - - -
11.12.2019 06:00:00 - - - - - -
11.12.2019 05:00:00 - - - - - -
11.12.2019 04:00:00 - - - - - -
11.12.2019 03:00:00 - - - - - -
11.12.2019 02:00:00 - - - - - -
11.12.2019 01:00:00 - - - - - -
11.12.2019 00:00:00 - - - - - -
10.12.2019 23:00:00 - - - - - -
10.12.2019 22:00:00 - - - - - -
10.12.2019 21:00:00 - - - - - -
10.12.2019 20:00:00 12,0 10,0 9 5 N 10
10.12.2019 19:00:00 13,0 10,0 5 3 N 10
10.12.2019 18:00:00 12,0 10,0 11 6 N 10
10.12.2019 17:00:00 13,0 9,0 15 8 NNE 10
10.12.2019 16:00:00 13,0 9,0 21 11 N 10
10.12.2019 15:00:00 15,0 9,0 28 15 N 10
10.12.2019 14:00:00 14,0 9,0 24 13 N 10
10.12.2019 13:00:00 14,0 10,0 22 12 N 10
10.12.2019 12:00:00 14,0 10,0 0 0 N 10
10.12.2019 11:00:00 12,0 9,0 0 0 N 10
10.12.2019 10:00:00 11,0 8,0 4 2 - 10
10.12.2019 09:00:00 9,0 8,0 0 0 N 10
10.12.2019 08:00:00 6,0 6,0 8 4 SE 10
10.12.2019 07:00:00 - - - - - -
10.12.2019 06:00:00 - - - - - -
10.12.2019 05:00:00 - - - - - -
10.12.2019 04:00:00 - - - - - -
10.12.2019 03:00:00 - - - - - -
10.12.2019 02:00:00 - - - - - -
10.12.2019 01:00:00 - - - - - -
10.12.2019 00:00:00 - - - - - -
09.12.2019 23:00:00 - - - - - -
09.12.2019 22:00:00 - - - - - -
09.12.2019 21:00:00 - - - - - -
09.12.2019 20:00:00 11,0 10,0 0 0 N 10
09.12.2019 19:00:00 11,0 11,0 8 4 ENE 10
09.12.2019 18:00:00 13,0 11,0 0 0 N 10
09.12.2019 17:00:00 13,0 11,0 4 2 SSE 10
09.12.2019 16:00:00 14,0 11,0 4 2 - 10
09.12.2019 15:00:00 15,0 10,0 5 3 WSW 10
09.12.2019 14:00:00 15,0 9,0 11 6 SW 10
09.12.2019 13:00:00 16,0 11,0 9 5 SW 10
09.12.2019 12:00:00 16,0 12,0 8 4 SW 10
09.12.2019 11:00:00 15,0 13,0 9 5 SW 10
09.12.2019 10:00:00 13,0 13,0 4 2 - 8
09.12.2019 09:00:00 12,0 12,0 4 2 - 8
09.12.2019 08:00:00 10,0 10,0 8 4 N 8
09.12.2019 07:00:00 - - - - - -
09.12.2019 06:00:00 - - - - - -
09.12.2019 05:00:00 - - - - - -
09.12.2019 04:00:00 - - - - - -
09.12.2019 03:00:00 - - - - - -
09.12.2019 02:00:00 - - - - - -
09.12.2019 01:00:00 - - - - - -
09.12.2019 00:00:00 - - - - - -
08.12.2019 23:00:00 - - - - - -
08.12.2019 22:00:00 - - - - - -
08.12.2019 21:00:00 - - - - - -
08.12.2019 20:00:00 10,0 10,0 0 0 N 10
08.12.2019 19:00:00 12,0 12,0 5 3 ESE 10
08.12.2019 18:00:00 13,0 12,0 5 3 - 10
08.12.2019 17:00:00 15,0 12,0 8 4 E 10
08.12.2019 16:00:00 17,0 12,0 9 5 NE 10
08.12.2019 15:00:00 17,0 11,0 8 4 WSW 10
08.12.2019 14:00:00 18,0 11,0 5 3 SSW 10
08.12.2019 13:00:00 17,0 11,0 3 2 SSW 10
08.12.2019 12:00:00 17,0 12,0 0 0 N 10
08.12.2019 11:00:00 15,0 11,0 5 3 SW 10
08.12.2019 10:00:00 15,0 11,0 4 2 SW 10
08.12.2019 09:00:00 11,0 10,0 0 0 N 10
08.12.2019 08:00:00 9,0 9,0 5 3 - 10
08.12.2019 07:00:00 - - - - - -
08.12.2019 06:00:00 - - - - - -
08.12.2019 05:00:00 - - - - - -
08.12.2019 04:00:00 - - - - - -
08.12.2019 03:00:00 - - - - - -
08.12.2019 02:00:00 - - - - - -

tt = temperature
td = dewpoint
ff = wind speed
dd = wind direction
vv = visibility

Next stations